Airfield :
LOGIN :

Register | Disclaimer

   EN    FR    IT 

 










Legend :    VFR   Marginal VFR   IFR   Intensive IFR   Very Intensive IFR
Visi :
Ceiling :
>= 8 km
>= 3000ft
5 to 8 km
1000 to 3000 ft
1500m to 5 km
500 to 1000 ft
800 to 1500m
200 to 500 ft
< 800m
< 200 ft
Symbols :   Thunderstorms  Fog  Heavy snow  Heavy precipitations  Wind > 20 kt
SIGMETs :     Misc.  Thunderstorms  Icing  Turbulence  Mountain Waves  Volcanic Ashes






- Airport Elevation : 184 ft
- IATA code : BRU


EBBR - Bruxelles

CURRENT METAR :
  • 102320Z 20020G32KT 9999 BKN022 07/03 Q1011 NOSIG

EXPIRED METARs :
  • 102250Z 21020KT 9999 BKN027 07/03 Q1012 NOSIG
  • 102220Z 20018KT 9999 FEW029 BKN049 07/03 Q1012 NOSIG
  • 102150Z 19020KT 9999 BKN023 07/02 Q1012 NOSIG
  • 102120Z 20018KT 9999 BKN027 07/02 Q1012 NOSIG
  • 102050Z 19019KT 9999 BKN031 06/02 Q1013 NOSIG

TAF TAF EBBR
Valid from the 11 at 00:00 until the 12 at 06:00 UTC


102300Z 1100/1206 20020G30KT 9999 BKN020
BECMG 1101/1103 21013KT SCT009 BKN013
TEMPO 1103/1106 4000 RA -RADZ BKN008
BECMG 1107/1109 SCT015 SCT030
BECMG 1121/1123 BKN014
TEMPO 1122/1202 4000 SHRA BKN009 SCT014TCU
BECMG 1202/1204 BKN007
PROB40
TEMPO 1204/1206 BKN004



MET'MAP, your aeronautical weather chart ! - Copyright ORBIFLY December 2007 - Disclaimer

ORBIFLY MET'MAP TEAM :

Programming & Development : Alexandra Zaïnal
Concept & original design : Baudouin d'Aumeries
Assistance for programming : Marc-Olivier Méhu
Technical & hardware support : Manuel Goepfert

Contact : metmap@orbifly.com




SOURCES & CREDITS :

   NOAA